Huvudsida
METAR-TAF:

METAR-TAF

Flygplatser :

Villmanstrand, Finland

Villmanstrands flygplats

latitud: 61-02-45N, longitud: 028-08-55E, höjd: 106 m

Aktuellt väderrapport

Denna rapport gjordes för 35 minuter sedan, klockan 10:20 UTC
Vind 8 kt från ost, varierande mellan ost/nordost och syd/sydost
Temperatur -9°C
Fuktighet 79%
Tryck 1003 hPa
Sikt: 9000 m
Få moln på en höjd av 1100 ft
lätt snö

METAR: EFLP 171020Z AUTO 10008KT 060V150 9000 -SN FEW011 M09/M12 Q1003

Tid: 12:55 (10:55 UTC)


TAF: saknas

Aktuella väderrapporter och prognoser från 4000 flygplatser (METAR- och TAF-rapporter).

De tillgängliga stationerna syns som gula och röda prickar på kartan.

För musen över prickarna för att se namnen på stationerna.

Klicka sedan för att få väderrapporter och prognoser.

För att ändra kartan: Klicka på de gröna knapparna med ett svart kors på för att zooma in; den gröna knappen med ett streck på för att zooma ut; eller på de gröna pilarna för angränsande kartor.


METAR-TAF: